Kezdőlap
METAR-TAF:

METAR-TAF

Repülőterek :

Dübendorf, Svájc

földrajzi szélesség: 47-23-55N, földrajzi hosszúság: 8-38-53E, magasság: 448 m

Jelenlegi meteorológiai megfigyelések

A jelentés 27 perccel ezelõtt készült, 08:20 UTC
Szélcsend
Hőmérséklet 24°C
Páratartalom 65%
Légköri nyomás 1017 hPa
Látótávolság 10 km, vagy több
Szórványos felhőzet 12000 lábon

METAR: LSMD 130820Z 00000KT 9999 SCT120 24/17 Q1017 RMK BLU+

Idő: 10:47 (08:47 UTC)


TAF: hiányzik

Meteorológiai megfigyelések és előrejelzések több, mint 4000 repülőtéren (METAR és TAF jelentéseket).

A térképen piros és sárga pontok jelzik az elérhető meteorológiai állomásokat.

Mozgassa az egeret a pont fölött, hogy megjelenjen az állomás neve.

Azután kattintson az időjárási megfigyelések és előrejelzések megtekintéséhez.

A térkép megváltoztatása: kattintson a fekete keresztel jelölt zöld gombra ráközelítéshez, a vonallal jelölt zöld gombra távolításhoz, vagy a zöld nyilakra a szomszédos térképek eléréséhez.


METAR-TAF: